sim
Sign-in with your pilot id or email,
or register
Callsign
Passwort

Schedule Details

Flight Number: EWG7527 (1)
Departure: Fuerteventura Airport (GCFV) at 16:05
Arrival: Hamburg Airport (EDDH) at 21:05
Route: Eurowings Passenger Schedule. Enter filed route here before submitting Pirep.

Weather Information
Getting current METAR information for GCFV 231130Z 06014KT 9999 FEW020 24/18 Q1017
Getting current METAR information for EDDH 231120Z 26006KT 140V300 9999 FEW040 27/16 Q1021 NOSIG

Schedule Frequency

Route Map